WetterOnline ( https://www.wetteronline.de )

Wetter aktuell Walsrode

Aktuelles Wetter: Soltau (76m)

6-stündlich | Neueste Meldungen
Ortszeit Temperatur Wetter
Sa, 24.02. 13:00 7.9° C bewölkt
Sa, 24.02. 7:00 3.4° C bewölkt
Sa, 24.02. 1:00 4.4° C fast wolkenlos
Fr, 23.02. 19:00 7.6° C bedeckt
Fr, 23.02. 13:00 7.6° C bedeckt
Fr, 23.02. 7:00 4.9° C bewölkt
Fr, 23.02. 1:00 9.1° C Sprühregen
Do, 22.02. 19:00 11.0° C bedeckt
Ortszeit Temperatur Wetter
Sa, 24.02. 14:30 8.7° C bewölkt
Sa, 24.02. 14:20 8.7° C bewölkt
Sa, 24.02. 14:10 8.4° C bewölkt
Sa, 24.02. 14:00 8.5° C wolkig
Sa, 24.02. 13:50 8.5° C wolkig
Sa, 24.02. 13:40 8.9° C bewölkt
Sa, 24.02. 13:30 8.0° C bewölkt
Sa, 24.02. 13:00 7.9° C bewölkt
Sa, 24.02. 12:30 8.3° C wolkig
Sa, 24.02. 12:00 7.8° C leicht bewölkt
Sa, 24.02. 11:30 7.3° C wolkig
Ortszeit Relative Feuchte Sichtweite
Sa, 24.02. 13:00 68% 60 km
Sa, 24.02. 7:00 82% 65 km
Sa, 24.02. 1:00 78% 55 km
Fr, 23.02. 19:00 67% 65 km
Fr, 23.02. 13:00 62% >70 km
Fr, 23.02. 7:00 81% 55 km
Fr, 23.02. 1:00 67% 50 km
Do, 22.02. 19:00 86% >70 km
Ortszeit Relative Feuchte Sichtweite
Sa, 24.02. 14:30 66% >70 km
Sa, 24.02. 14:20 66% -
Sa, 24.02. 14:10 64% -
Sa, 24.02. 14:00 65% 55 km
Sa, 24.02. 13:50 65% -
Sa, 24.02. 13:40 66% -
Sa, 24.02. 13:30 69% >70 km
Sa, 24.02. 13:00 68% 60 km
Sa, 24.02. 12:30 66% 55 km
Sa, 24.02. 12:00 71% 65 km
Sa, 24.02. 11:30 75% 55 km
Ortszeit Niederschlagsmenge Niederschlagsart
Sa, 24.02. 13:00 0.0 l/m2 in 6 Std. -
Sa, 24.02. 7:00 0.1 l/m2 in 12 Std. -
Sa, 24.02. 1:00 0.1 l/m2 in 6 Std. Regen
Fr, 23.02. 19:00 0.0 l/m2 in 12 Std. -
Fr, 23.02. 13:00 0.0 l/m2 in 6 Std. -
Fr, 23.02. 7:00 4 l/m2 in 12 Std. Regen
Fr, 23.02. 1:00 2 l/m2 in 6 Std. Regen
Do, 22.02. 19:00 0.7 l/m2 in 12 Std. Regen
Ortszeit Niederschlagsmenge Niederschlagsart
Sa, 24.02. 14:30 0.0 l/m2 in 30 Min -
Sa, 24.02. 14:20 keine Meldung -
Sa, 24.02. 14:10 keine Meldung -
Sa, 24.02. 14:00 0.0 l/m2 in 1 Std. -
Sa, 24.02. 13:50 keine Meldung -
Sa, 24.02. 13:40 keine Meldung -
Sa, 24.02. 13:30 0.0 l/m2 in 30 Min -
Sa, 24.02. 13:00 0.0 l/m2 in 1 Std. -
Sa, 24.02. 12:30 0.0 l/m2 in 30 Min -
Sa, 24.02. 12:00 0.0 l/m2 in 1 Std. -
Sa, 24.02. 11:30 0.0 l/m2 in 30 Min -
Ortszeit Stärke Spitze Richtung
km/h Bft. km/h Grad Sektor
Sa, 24.02. 13:00 19 3 31 210° SW
Sa, 24.02. 7:00 11 2 18 160° S
Sa, 24.02. 1:00 7 2 25 160° S
Fr, 23.02. 19:00 7 2 47 180° S
Fr, 23.02. 13:00 24 4 50 210° SW
Fr, 23.02. 7:00 17 3 72 220° SW
Fr, 23.02. 1:00 31 5 61 230° SW
Do, 22.02. 19:00 18 3 40 150° SO
Ortszeit Stärke Spitze Richtung
km/h Bft. km/h Grad Sektor
Sa, 24.02. 14:30 17 3 30 200° S
Sa, 24.02. 14:20 17 3 - 200° S
Sa, 24.02. 14:10 18 3 - 210° SW
Sa, 24.02. 14:00 18 3 32 190° S
Sa, 24.02. 13:50 18 3 - 190° S
Sa, 24.02. 13:40 20 4 - 200° S
Sa, 24.02. 13:30 19 3 30 200° S
Sa, 24.02. 13:00 19 3 31 210° SW
Sa, 24.02. 12:30 14 3 25 230° SW
Sa, 24.02. 12:00 20 4 30 210° SW
Sa, 24.02. 11:30 14 3 25 210° SW
Ortszeit Untergrenze Bedeckung Gattung
total tief tief mittel hoch
Sa, 24.02. 13:00 870 m 7/8 6/8 - - -
Sa, 24.02. 7:00 1050 m 8/8 7/8 - - -
Sa, 24.02. 1:00 8100 m 1/8 0/8 - - -
Fr, 23.02. 19:00 1500 m 8/8 8/8 - - -
Fr, 23.02. 13:00 1350 m 8/8 8/8 - - -
Fr, 23.02. 7:00 840 m 7/8 7/8 - - -
Fr, 23.02. 1:00 1050 m 8/8 7/8 - - -
Do, 22.02. 19:00 690 m 8/8 8/8 - - -
Ortszeit Bedeckungsgrad in Achtel und Wolkenuntergrenze
Sa, 24.02. 14:30 1(990m) 7(1800m)
Sa, 24.02. 14:20 1(990m) 7(1800m)
Sa, 24.02. 14:10 7
Sa, 24.02. 14:00 3(960m) 7(4200m) 8(5400m)
Sa, 24.02. 13:50 3(960m) 7(4200m) 8(5400m)
Sa, 24.02. 13:40 7
Sa, 24.02. 13:30 4(870m) 7(2100m) 7(3900m)
Sa, 24.02. 13:00 2(870m) 6(1500m) 7(6300m)
Sa, 24.02. 12:30 1(780m) 7(6600m) 7(7500m)
Sa, 24.02. 12:00 5(7500m)
Sa, 24.02. 11:30 3(1200m) 6(1470m)
Ortszeit Luftdruck NN (hPa) Tendenz (hPa in 3 Std.)
Sa, 24.02. 13:00 1000 + 0,8
Sa, 24.02. 7:00 998 + 0,8
Sa, 24.02. 1:00 997 + 0,4
Fr, 23.02. 19:00 996 + 1,5
Fr, 23.02. 13:00 994 + 1,1
Fr, 23.02. 7:00 990 + 3,0
Fr, 23.02. 1:00 981 + 3,0
Do, 22.02. 19:00 982 - 4,4
Ortszeit Luftdruck NN (hPa) Tendenz (hPa in 3 Std.)
Sa, 24.02. 14:30 1000 + 0,4
Sa, 24.02. 14:20 1000 keine Meldung
Sa, 24.02. 14:10 1000 keine Meldung
Sa, 24.02. 14:00 1000 + 0,4
Sa, 24.02. 13:50 1000 keine Meldung
Sa, 24.02. 13:40 1000 keine Meldung
Sa, 24.02. 13:30 1000 + 0,6
Sa, 24.02. 13:00 1000 + 0,8
Sa, 24.02. 12:30 1000 + 0,8
Sa, 24.02. 12:00 1000 + 1,0
Sa, 24.02. 11:30 1000 + 1,1
Ortszeit Schneehöhe (cm)
Sa, 24.02. 13:00 0
Sa, 24.02. 7:00 0
Sa, 24.02. 1:00 0
Fr, 23.02. 19:00 0
Fr, 23.02. 13:00 0
Fr, 23.02. 7:00 0
Fr, 23.02. 1:00 0
Do, 22.02. 19:00 0
Ortszeit Schneehöhe (cm)
Sa, 24.02. 14:30 0
Sa, 24.02. 14:20 0
Sa, 24.02. 14:10 -
Sa, 24.02. 14:00 0
Sa, 24.02. 13:50 0
Sa, 24.02. 13:40 -
Sa, 24.02. 13:30 0
Sa, 24.02. 13:00 0
Sa, 24.02. 12:30 0
Sa, 24.02. 12:00 0
Sa, 24.02. 11:30 0
Link zu dieser Seite / Seite empfehlen

Das Wetter in ...